createdAt,value
2023-03-05T00:00:39.656Z,97480.16
2023-03-05T00:02:43.235Z,97476.78
2023-03-05T00:04:45.828Z,97474.25
2023-03-05T00:06:48.418Z,97475.06
2023-03-05T00:08:51.747Z,97472.41
2023-03-05T00:10:57.964Z,97481.81
2023-03-05T00:13:00.545Z,97471.56
2023-03-05T00:15:03.073Z,97481.94
2023-03-05T00:17:06.999Z,97466.34
2023-03-05T00:19:09.945Z,97479.31
2023-03-05T00:21:20.809Z,97476.75
2023-03-05T00:23:23.399Z,97478.53
2023-03-05T00:25:25.926Z,97477.72
2023-03-05T00:27:28.480Z,97477.72
2023-03-05T00:29:31.826Z,97471.72
2023-03-05T00:31:37.007Z,97470.88
2023-03-05T00:33:40.932Z,97475.19
2023-03-05T00:35:45.277Z,97474.31
2023-03-05T00:37:47.837Z,97467.44
2023-03-05T00:39:50.401Z,97464.00
2023-03-05T00:41:53.157Z,97468.31
2023-03-05T00:43:58.588Z,97466.56
2023-03-05T00:46:01.120Z,97458.75
2023-03-05T00:48:04.361Z,97457.94
2023-03-05T00:50:10.108Z,97454.53
2023-03-05T00:52:12.695Z,97457.97
2023-03-05T00:54:15.390Z,97449.38
2023-03-05T00:56:18.278Z,97454.53
2023-03-05T00:58:21.251Z,97455.41
2023-03-05T01:00:24.053Z,97445.91
2023-03-05T01:02:26.986Z,97449.41
2023-03-05T01:04:29.553Z,97454.53
2023-03-05T01:06:33.525Z,97448.53
2023-03-05T01:08:36.779Z,97446.78
2023-03-05T01:10:39.453Z,97445.06
2023-03-05T01:12:42.026Z,97441.59
2023-03-05T01:14:44.597Z,97439.91
2023-03-05T01:16:47.568Z,97436.47
2023-03-05T01:18:50.114Z,97439.06
2023-03-05T01:20:52.689Z,97439.00
2023-03-05T01:22:58.887Z,97429.56
2023-03-05T01:25:01.722Z,97433.88
2023-03-05T01:27:04.277Z,97429.56
2023-03-05T01:29:06.841Z,97417.59
2023-03-05T01:31:10.485Z,97420.16
2023-03-05T01:33:13.050Z,97421.03
2023-03-05T01:35:19.232Z,97425.31
2023-03-05T01:37:21.829Z,97412.41
2023-03-05T01:39:25.707Z,97414.09
2023-03-05T01:41:28.315Z,97413.25
2023-03-05T01:43:31.872Z,97414.13
2023-03-05T01:45:34.543Z,97408.09
2023-03-05T01:47:37.459Z,97407.28
2023-03-05T01:49:42.168Z,97406.34
2023-03-05T01:51:52.566Z,97401.22
2023-03-05T01:53:57.958Z,97397.78
2023-03-05T01:56:03.149Z,97399.44
2023-03-05T01:58:09.152Z,97398.59
2023-03-05T02:00:15.749Z,97397.75
2023-03-05T02:02:19.573Z,97394.25
2023-03-05T02:04:24.758Z,97395.94
2023-03-05T02:06:27.447Z,97389.00
2023-03-05T02:08:30.046Z,97385.63
2023-03-05T02:10:35.364Z,97380.53
2023-03-05T02:12:39.251Z,97381.25
2023-03-05T02:14:43.344Z,97376.97
2023-03-05T02:16:45.915Z,97381.31
2023-03-05T02:18:48.585Z,97377.91
2023-03-05T02:20:54.318Z,97366.69
2023-03-05T02:22:58.615Z,97370.16
2023-03-05T02:25:01.196Z,97359.88
2023-03-05T02:27:05.900Z,97359.06
2023-03-05T02:29:11.480Z,97360.81
2023-03-05T02:31:17.263Z,97361.66
2023-03-05T02:33:21.664Z,97353.13
2023-03-05T02:35:24.303Z,97352.25
2023-03-05T02:37:26.995Z,97353.97
2023-03-05T02:39:31.010Z,97355.66
2023-03-05T02:41:33.837Z,97351.38
2023-03-05T02:43:36.430Z,97353.13
2023-03-05T02:45:39.853Z,97347.09
2023-03-05T02:47:42.694Z,97352.28
2023-03-05T02:49:45.337Z,97349.72
2023-03-05T02:51:47.919Z,97344.53
2023-03-05T02:53:50.476Z,97345.38
2023-03-05T02:55:54.391Z,97345.84
2023-03-05T02:57:56.977Z,97342.66
2023-03-05T02:59:59.705Z,97341.88
2023-03-05T03:02:02.784Z,97335.88
2023-03-05T03:04:05.504Z,97329.81
2023-03-05T03:06:08.775Z,97334.19
2023-03-05T03:08:11.424Z,97326.47
2023-03-05T03:10:14.070Z,97319.47
2023-03-05T03:12:18.026Z,97321.22
2023-03-05T03:14:23.345Z,97316.13
2023-03-05T03:16:26.011Z,97315.28
2023-03-05T03:18:28.622Z,97321.25
2023-03-05T03:20:31.377Z,97317.03
2023-03-05T03:22:34.436Z,97313.59
2023-03-05T03:24:38.441Z,97310.16
2023-03-05T03:26:40.979Z,97314.47
2023-03-05T03:28:44.863Z,97313.59
2023-03-05T03:30:47.864Z,97312.66
2023-03-05T03:32:52.447Z,97305.78
2023-03-05T03:34:55.054Z,97309.97
2023-03-05T03:36:57.637Z,97304.81
2023-03-05T03:39:00.191Z,97306.59
2023-03-05T03:41:02.792Z,97305.75
2023-03-05T03:43:05.349Z,97303.22
2023-03-05T03:45:10.385Z,97295.50
2023-03-05T03:47:12.926Z,97303.25
2023-03-05T03:49:19.094Z,97297.19
2023-03-05T03:51:21.697Z,97300.59
2023-03-05T03:53:24.304Z,97291.94
2023-03-05T03:55:26.828Z,97293.72
2023-03-05T03:57:30.327Z,97283.34
2023-03-05T03:59:32.951Z,97287.72
2023-03-05T04:01:36.903Z,97285.72
2023-03-05T04:03:39.468Z,97279.88
2023-03-05T04:05:42.393Z,97280.63
2023-03-05T04:07:45.285Z,97280.69
2023-03-05T04:09:47.839Z,97276.38
2023-03-05T04:11:50.384Z,97279.97
2023-03-05T04:13:53.100Z,97268.84
2023-03-05T04:15:55.863Z,97273.03
2023-03-05T04:17:59.919Z,97271.38
2023-03-05T04:20:05.259Z,97275.69
2023-03-05T04:22:08.233Z,97276.63
2023-03-05T04:24:11.015Z,97273.94
2023-03-05T04:26:13.592Z,97274.81
2023-03-05T04:28:17.612Z,97276.59
2023-03-05T04:30:20.400Z,97271.28
2023-03-05T04:32:23.263Z,97271.44
2023-03-05T04:34:27.257Z,97271.41
2023-03-05T04:36:29.808Z,97274.06
2023-03-05T04:38:32.470Z,97262.06
2023-03-05T04:40:35.708Z,97270.59
2023-03-05T04:42:38.285Z,97261.06
2023-03-05T04:44:40.832Z,97266.22
2023-03-05T04:46:43.430Z,97261.16
2023-03-05T04:48:46.050Z,97267.03
2023-03-05T04:50:49.981Z,97260.03
2023-03-05T04:52:52.723Z,97258.19
2023-03-05T04:54:55.349Z,97256.72
2023-03-05T04:57:00.774Z,97258.50
2023-03-05T04:59:03.503Z,97255.16
2023-03-05T05:01:07.371Z,97252.56
2023-03-05T05:03:09.960Z,97255.88
2023-03-05T05:05:15.044Z,97251.41
2023-03-05T05:07:18.964Z,97254.81
2023-03-05T05:09:21.504Z,97247.91
2023-03-05T05:11:24.141Z,97254.91
2023-03-05T05:13:27.044Z,97241.31
2023-03-05T05:15:29.723Z,97244.81
2023-03-05T05:17:33.064Z,97243.94
2023-03-05T05:19:36.459Z,97241.31
2023-03-05T05:21:39.150Z,97243.91
2023-03-05T05:23:43.036Z,97244.81
2023-03-05T05:25:46.329Z,97243.16
2023-03-05T05:27:48.921Z,97238.63
2023-03-05T05:29:52.811Z,97240.41
2023-03-05T05:31:56.383Z,97240.47
2023-03-05T05:33:58.987Z,97245.63
2023-03-05T05:36:03.448Z,97243.09
2023-03-05T05:38:06.019Z,97245.75
2023-03-05T05:40:11.470Z,97246.59
2023-03-05T05:42:13.980Z,97244.06
2023-03-05T05:44:16.524Z,97240.59
2023-03-05T05:46:21.133Z,97249.22
2023-03-05T05:48:24.557Z,97235.44
2023-03-05T05:50:27.673Z,97239.75
2023-03-05T05:52:30.224Z,97244.94
2023-03-05T05:54:32.862Z,97246.63
2023-03-05T05:56:37.164Z,97245.75
2023-03-05T05:58:41.342Z,97242.28
2023-03-05T06:00:44.164Z,97238.00
2023-03-05T06:02:46.849Z,97249.16
2023-03-05T06:04:49.511Z,97249.16
2023-03-05T06:06:52.062Z,97248.25
2023-03-05T06:08:55.633Z,97244.84
2023-03-05T06:10:58.171Z,97249.16
2023-03-05T06:13:02.309Z,97245.69
2023-03-05T06:15:05.783Z,97248.25
2023-03-05T06:17:08.978Z,97237.94
2023-03-05T06:19:13.185Z,97244.81
2023-03-05T06:21:17.280Z,97243.97
2023-03-05T06:23:19.829Z,97236.19
2023-03-05T06:25:22.368Z,97243.94
2023-03-05T06:27:24.976Z,97240.47
2023-03-05T06:29:28.861Z,97234.47
2023-03-05T06:31:31.638Z,97237.84
2023-03-05T06:33:36.688Z,97238.66
2023-03-05T06:35:40.174Z,97232.75
2023-03-05T06:37:45.741Z,97230.94
2023-03-05T06:39:48.409Z,97230.09
2023-03-05T06:41:52.007Z,97232.75
2023-03-05T06:43:55.451Z,97234.38
2023-03-05T06:46:06.630Z,97231.88
2023-03-05T06:48:09.160Z,97238.78
2023-03-05T06:50:13.126Z,97234.50
2023-03-05T06:52:15.713Z,97240.50
2023-03-05T06:54:18.629Z,97233.56
2023-03-05T06:56:21.670Z,97231.06
2023-03-05T06:58:24.467Z,97233.69
2023-03-05T07:00:29.594Z,97232.75
2023-03-05T07:02:33.685Z,97231.94
2023-03-05T07:04:36.266Z,97228.53
2023-03-05T07:06:39.627Z,97224.19
2023-03-05T07:08:42.234Z,97225.06
2023-03-05T07:10:45.130Z,97222.38
2023-03-05T07:12:47.687Z,97225.00
2023-03-05T07:14:50.296Z,97223.31
2023-03-05T07:16:52.912Z,97230.06
2023-03-05T07:18:58.878Z,97221.50
2023-03-05T07:21:03.620Z,97227.56
2023-03-05T07:23:06.224Z,97226.72
2023-03-05T07:25:09.507Z,97220.69
2023-03-05T07:27:12.057Z,97225.84
2023-03-05T07:29:14.699Z,97226.72
2023-03-05T07:31:19.915Z,97218.09
2023-03-05T07:33:22.460Z,97221.50
2023-03-05T07:35:26.639Z,97220.56
2023-03-05T07:37:29.272Z,97224.59
2023-03-05T07:39:31.857Z,97219.44
2023-03-05T07:41:34.645Z,97210.03
2023-03-05T07:43:37.352Z,97214.41
2023-03-05T07:45:41.037Z,97210.19
2023-03-05T07:47:43.581Z,97209.34
2023-03-05T07:49:46.189Z,97214.50
2023-03-05T07:51:50.372Z,97210.19
2023-03-05T07:53:54.245Z,97211.03
2023-03-05T07:55:56.815Z,97213.63
2023-03-05T07:57:59.365Z,97205.03
2023-03-05T08:00:01.976Z,97217.84
2023-03-05T08:02:04.687Z,97207.50
2023-03-05T08:04:08.931Z,97217.63
2023-03-05T08:06:13.071Z,97214.91
2023-03-05T08:08:17.593Z,97209.66
2023-03-05T08:10:20.306Z,97208.94
2023-03-05T08:12:23.105Z,97211.69
2023-03-05T08:14:25.654Z,97201.97
2023-03-05T08:16:28.479Z,97203.91
2023-03-05T08:18:31.028Z,97201.28
2023-03-05T08:20:36.199Z,97199.44
2023-03-05T08:22:39.499Z,97199.47
2023-03-05T08:24:44.290Z,97198.72
2023-03-05T08:26:46.845Z,97205.59
2023-03-05T08:28:50.293Z,97203.09
2023-03-05T08:30:52.956Z,97197.84
2023-03-05T08:32:57.316Z,97199.59
2023-03-05T08:34:59.932Z,97199.59
2023-03-05T08:37:02.477Z,97196.75
2023-03-05T08:39:06.762Z,97194.13
2023-03-05T08:41:10.694Z,97195.06
2023-03-05T08:43:13.534Z,97204.63
2023-03-05T08:45:16.285Z,97194.34
2023-03-05T08:47:20.340Z,97192.56
2023-03-05T08:49:23.106Z,97190.69
2023-03-05T08:51:26.973Z,97193.84
2023-03-05T08:53:29.536Z,97189.63
2023-03-05T08:55:32.247Z,97186.47
2023-03-05T08:57:36.132Z,97192.38
2023-03-05T08:59:41.120Z,97190.72
2023-03-05T09:01:43.742Z,97186.50
2023-03-05T09:03:46.460Z,97189.09
2023-03-05T09:05:49.500Z,97187.38
2023-03-05T09:07:52.086Z,97181.22
2023-03-05T09:09:54.716Z,97187.97
2023-03-05T09:11:59.001Z,97180.28
2023-03-05T09:14:03.041Z,97182.53
2023-03-05T09:16:07.844Z,97176.69
2023-03-05T09:18:10.510Z,97179.22
2023-03-05T09:20:15.361Z,97175.91
2023-03-05T09:22:18.013Z,97177.63
2023-03-05T09:24:20.561Z,97165.50
2023-03-05T09:26:23.117Z,97172.03
2023-03-05T09:28:25.704Z,97171.47
2023-03-05T09:30:29.616Z,97165.56
2023-03-05T09:32:32.614Z,97167.34
2023-03-05T09:34:35.586Z,97165.94
2023-03-05T09:36:38.267Z,97161.66
2023-03-05T09:38:40.818Z,97161.13
2023-03-05T09:40:53.036Z,97158.63
2023-03-05T09:43:05.381Z,97158.69
2023-03-05T09:45:18.939Z,97149.25
2023-03-05T09:47:35.126Z,97157.91
2023-03-05T09:49:50.649Z,97151.00
2023-03-05T09:52:01.394Z,97157.81
2023-03-05T09:54:11.419Z,97160.41
2023-03-05T09:56:17.630Z,97156.88
2023-03-05T09:58:27.138Z,97155.16
2023-03-05T10:00:37.262Z,97141.34
2023-03-05T10:02:50.777Z,97142.16
2023-03-05T10:04:58.766Z,97149.88
2023-03-05T10:07:08.708Z,97143.78
2023-03-05T10:09:16.758Z,97142.94
2023-03-05T10:11:38.931Z,97134.97
2023-03-05T10:13:46.330Z,97140.94
2023-03-05T10:15:58.926Z,97129.91
2023-03-05T10:18:15.214Z,97131.22
2023-03-05T10:20:35.922Z,97128.19
2023-03-05T10:22:52.708Z,97124.28
2023-03-05T10:25:08.118Z,97123.59
2023-03-05T10:27:20.160Z,97115.88
2023-03-05T10:30:02.878Z,97116.69
2023-03-05T10:32:19.092Z,97111.59
2023-03-05T10:34:49.331Z,97117.53
2023-03-05T10:37:07.321Z,97123.63
2023-03-05T10:39:43.307Z,97112.41
2023-03-05T10:42:02.313Z,97108.09
2023-03-05T10:44:15.171Z,97108.09
2023-03-05T10:46:21.856Z,97104.59
2023-03-05T10:48:34.761Z,97104.59
2023-03-05T10:50:43.872Z,97098.59
2023-03-05T10:52:51.681Z,97102.88
2023-03-05T10:54:54.240Z,97096.41
2023-03-05T10:57:14.295Z,97090.25
2023-03-05T10:59:16.880Z,97088.31
2023-03-05T11:01:25.846Z,97086.84
2023-03-05T11:03:47.931Z,97084.28
2023-03-05T11:05:59.326Z,97084.41
2023-03-05T11:08:02.288Z,97079.13
2023-03-05T11:10:16.986Z,97077.41
2023-03-05T11:12:21.852Z,97071.34
2023-03-05T11:14:31.084Z,97070.53
2023-03-05T11:16:35.854Z,97061.06
2023-03-05T11:18:38.440Z,97061.00
2023-03-05T11:20:41.607Z,97061.91
2023-03-05T11:23:06.550Z,97058.91
2023-03-05T11:25:19.031Z,97058.03
2023-03-05T11:27:32.276Z,97052.16
2023-03-05T11:29:35.983Z,97047.38
2023-03-05T11:31:38.520Z,97045.66
2023-03-05T11:33:41.100Z,97049.28
2023-03-05T11:35:45.058Z,97043.63
2023-03-05T11:38:01.456Z,97042.13
2023-03-05T11:40:21.518Z,97035.44
2023-03-05T11:42:25.413Z,97031.22
2023-03-05T11:44:31.054Z,97030.66
2023-03-05T11:46:41.264Z,97034.16
2023-03-05T11:48:46.096Z,97029.97
2023-03-05T11:50:52.689Z,97026.69
2023-03-05T11:52:59.243Z,97028.53
2023-03-05T11:55:06.929Z,97013.44
2023-03-05T11:57:15.276Z,97012.53
2023-03-05T11:59:21.280Z,97005.44
2023-03-05T12:01:26.766Z,97007.97
2023-03-05T12:03:33.295Z,97008.91
2023-03-05T12:05:41.012Z,97004.66
2023-03-05T12:07:48.200Z,97001.41
2023-03-05T12:09:54.056Z,96991.19
2023-03-05T12:12:03.276Z,96995.34
2023-03-05T12:14:16.420Z,96991.13
2023-03-05T12:16:29.345Z,96980.22
2023-03-05T12:18:43.232Z,96974.59
2023-03-05T12:20:57.032Z,96976.38
2023-03-05T12:22:59.946Z,96979.13
2023-03-05T12:25:24.744Z,96973.31
2023-03-05T12:27:35.230Z,96971.59
2023-03-05T12:29:43.775Z,96963.28
2023-03-05T12:31:49.323Z,96960.00
2023-03-05T12:33:51.891Z,96961.81
2023-03-05T12:35:54.487Z,96956.91
2023-03-05T12:38:28.529Z,96956.31
2023-03-05T12:40:33.404Z,96954.72
2023-03-05T12:42:48.307Z,96953.41
2023-03-05T12:45:24.400Z,96949.56
2023-03-05T12:47:26.985Z,96950.47
2023-03-05T12:49:30.066Z,96941.06
2023-03-05T12:51:39.508Z,96942.81
2023-03-05T12:53:42.340Z,96940.25
2023-03-05T12:55:56.717Z,96941.13
2023-03-05T12:58:03.979Z,96939.34
2023-03-05T13:00:11.705Z,96932.50
2023-03-05T13:02:22.730Z,96935.09
2023-03-05T13:04:29.232Z,96932.56
2023-03-05T13:06:34.514Z,96931.66
2023-03-05T13:08:38.216Z,96928.19
2023-03-05T13:10:41.114Z,96929.03
2023-03-05T13:12:52.894Z,96924.75
2023-03-05T13:14:59.934Z,96923.03
2023-03-05T13:17:03.884Z,96916.88
2023-03-05T13:19:17.322Z,96916.00
2023-03-05T13:21:21.224Z,96918.53
2023-03-05T13:23:26.434Z,96913.38
2023-03-05T13:25:29.529Z,96915.94
2023-03-05T13:27:33.932Z,96910.78
2023-03-05T13:29:52.272Z,96909.06
2023-03-05T13:31:57.058Z,96914.22
2023-03-05T13:34:09.852Z,96905.63
2023-03-05T13:36:17.054Z,96900.44
2023-03-05T13:38:27.360Z,96903.03
2023-03-05T13:40:32.060Z,96903.03
2023-03-05T13:42:38.352Z,96900.53
2023-03-05T13:44:44.877Z,96900.47
2023-03-05T13:46:48.039Z,96900.47
2023-03-05T13:48:50.660Z,96900.47
2023-03-05T13:50:56.481Z,96897.84
2023-03-05T13:53:15.794Z,96894.44
2023-03-05T13:55:19.306Z,96897.03
2023-03-05T13:57:37.335Z,96895.28
2023-03-05T13:59:39.951Z,96896.09
2023-03-05T14:01:46.438Z,96896.91
2023-03-05T14:03:51.357Z,96897.81
2023-03-05T14:05:55.128Z,96894.31
2023-03-05T14:07:57.917Z,96893.47
2023-03-05T14:10:03.026Z,96889.22
2023-03-05T14:12:07.306Z,96886.50
2023-03-05T14:14:17.805Z,96884.03
2023-03-05T14:16:27.907Z,96882.31
2023-03-05T14:18:31.908Z,96885.75
2023-03-05T14:20:34.550Z,96875.41
2023-03-05T14:22:39.017Z,96878.91
2023-03-05T14:24:53.376Z,96867.72
2023-03-05T14:26:58.009Z,96870.31
2023-03-05T14:29:02.348Z,96862.56
2023-03-05T14:31:05.029Z,96872.03
2023-03-05T14:33:07.737Z,96868.63
2023-03-05T14:35:21.911Z,96863.50
2023-03-05T14:37:27.554Z,96859.19
2023-03-05T14:39:33.426Z,96866.94
2023-03-05T14:41:39.620Z,96860.06
2023-03-05T14:43:42.150Z,96850.53
2023-03-05T14:45:47.759Z,96855.78
2023-03-05T14:47:51.436Z,96849.78
2023-03-05T14:49:54.009Z,96848.06
2023-03-05T14:51:58.401Z,96845.50
2023-03-05T14:54:01.490Z,96834.28
2023-03-05T14:56:04.032Z,96838.63
2023-03-05T14:58:14.089Z,96835.16
2023-03-05T15:00:17.730Z,96834.28
2023-03-05T15:02:22.216Z,96832.56
2023-03-05T15:04:24.793Z,96826.53
2023-03-05T15:06:33.054Z,96829.13
2023-03-05T15:08:36.990Z,96825.63
2023-03-05T15:10:39.553Z,96820.47
2023-03-05T15:12:42.404Z,96813.56
2023-03-05T15:14:45.266Z,96820.38
2023-03-05T15:16:49.114Z,96822.09
2023-03-05T15:18:51.861Z,96811.72
2023-03-05T15:20:54.800Z,96811.69
2023-03-05T15:22:57.409Z,96800.47
2023-03-05T15:25:03.125Z,96802.19
2023-03-05T15:27:06.612Z,96803.06
2023-03-05T15:29:09.265Z,96802.16
2023-03-05T15:31:12.230Z,96802.97
2023-03-05T15:33:16.821Z,96799.63
2023-03-05T15:35:19.425Z,96793.56
2023-03-05T15:37:21.992Z,96791.81
2023-03-05T15:39:26.276Z,96793.53
2023-03-05T15:41:30.157Z,96790.13
2023-03-05T15:43:32.713Z,96787.56
2023-03-05T15:45:35.277Z,96783.25
2023-03-05T15:47:37.963Z,96782.31
2023-03-05T15:49:41.070Z,96779.72
2023-03-05T15:51:43.756Z,96776.31
2023-03-05T15:53:46.479Z,96777.13
2023-03-05T15:55:49.015Z,96780.53
2023-03-05T15:57:54.041Z,96764.19
2023-03-05T15:59:56.894Z,96770.22
2023-03-05T16:01:59.494Z,96771.94
2023-03-05T16:04:02.538Z,96770.19
2023-03-05T16:06:06.252Z,96760.75
2023-03-05T16:08:09.338Z,96758.16
2023-03-05T16:10:12.871Z,96765.03
2023-03-05T16:12:19.774Z,96761.59
2023-03-05T16:14:27.049Z,96756.44
2023-03-05T16:16:30.010Z,96753.84
2023-03-05T16:18:33.669Z,96756.44
2023-03-05T16:20:36.530Z,96752.22
2023-03-05T16:22:39.265Z,96757.38
2023-03-05T16:24:41.826Z,96746.16
2023-03-05T16:26:44.504Z,96749.63
2023-03-05T16:28:47.075Z,96742.72
2023-03-05T16:30:55.408Z,96758.25
2023-03-05T16:32:57.965Z,96745.31
2023-03-05T16:35:00.541Z,96749.63
2023-03-05T16:37:05.063Z,96743.66
2023-03-05T16:39:07.741Z,96745.31
2023-03-05T16:41:10.315Z,96741.97
2023-03-05T16:43:12.845Z,96740.19
2023-03-05T16:45:15.435Z,96738.47
2023-03-05T16:47:19.367Z,96740.19
2023-03-05T16:49:22.874Z,96742.78
2023-03-05T16:51:26.018Z,96742.81
2023-03-05T16:53:28.595Z,96736.00
2023-03-05T16:55:31.152Z,96737.75
2023-03-05T16:57:33.692Z,96740.38
2023-03-05T16:59:36.326Z,96730.91
2023-03-05T17:01:38.930Z,96731.75
2023-03-05T17:03:44.037Z,96724.00
2023-03-05T17:05:46.591Z,96727.47
2023-03-05T17:07:53.039Z,96723.16
2023-03-05T17:09:56.184Z,96723.19
2023-03-05T17:11:58.710Z,96724.91
2023-03-05T17:14:01.260Z,96728.31
2023-03-05T17:16:04.647Z,96724.91
2023-03-05T17:18:08.004Z,96720.56
2023-03-05T17:20:13.783Z,96720.56
2023-03-05T17:22:17.038Z,96716.38
2023-03-05T17:24:22.325Z,96721.53
2023-03-05T17:26:25.286Z,96719.88
2023-03-05T17:28:27.831Z,96720.81
2023-03-05T17:30:31.330Z,96724.22
2023-03-05T17:32:33.881Z,96724.22
2023-03-05T17:34:37.115Z,96717.38
2023-03-05T17:36:41.031Z,96717.41
2023-03-05T17:38:44.074Z,96716.53
2023-03-05T17:40:46.632Z,96713.09
2023-03-05T17:42:49.160Z,96712.25
2023-03-05T17:44:54.149Z,96708.84
2023-03-05T17:46:56.723Z,96712.31
2023-03-05T17:48:59.246Z,96705.53
2023-03-05T17:51:02.328Z,96708.16
2023-03-05T17:53:06.292Z,96704.75
2023-03-05T17:55:12.087Z,96703.88
2023-03-05T17:57:14.645Z,96714.34
2023-03-05T17:59:17.185Z,96713.41
2023-03-05T18:01:24.500Z,96716.00
2023-03-05T18:03:27.355Z,96715.13
2023-03-05T18:05:30.381Z,96711.72
2023-03-05T18:07:33.173Z,96705.66
2023-03-05T18:09:37.246Z,96705.69
2023-03-05T18:11:39.984Z,96710.03
2023-03-05T18:13:42.956Z,96707.41
2023-03-05T18:15:47.574Z,96710.84
2023-03-05T18:17:50.643Z,96712.63
2023-03-05T18:19:53.632Z,96712.69
2023-03-05T18:21:56.170Z,96706.66
2023-03-05T18:23:58.713Z,96707.53
2023-03-05T18:26:04.127Z,96709.25
2023-03-05T18:28:08.341Z,96705.81
2023-03-05T18:30:12.342Z,96706.72
2023-03-05T18:32:14.987Z,96703.22
2023-03-05T18:34:17.757Z,96704.91
2023-03-05T18:36:20.340Z,96704.09
2023-03-05T18:38:24.822Z,96710.97
2023-03-05T18:40:30.982Z,96711.03
2023-03-05T18:42:37.561Z,96702.41
2023-03-05T18:44:40.249Z,96705.94
2023-03-05T18:46:42.839Z,96703.34
2023-03-05T18:48:45.366Z,96699.06
2023-03-05T18:50:50.728Z,96698.19
2023-03-05T18:52:53.726Z,96699.06
2023-03-05T18:54:56.263Z,96695.59
2023-03-05T18:56:58.822Z,96693.84
2023-03-05T18:59:02.933Z,96693.03
2023-03-05T19:01:05.752Z,96691.31
2023-03-05T19:03:08.985Z,96696.47
2023-03-05T19:05:11.885Z,96697.31
2023-03-05T19:07:14.517Z,96689.63
2023-03-05T19:09:29.987Z,96687.06
2023-03-05T19:11:32.537Z,96688.75
2023-03-05T19:13:39.698Z,96687.06
2023-03-05T19:15:44.104Z,96690.53
2023-03-05T19:17:49.629Z,96686.22
2023-03-05T19:19:53.005Z,96687.97
2023-03-05T19:21:59.503Z,96677.66
2023-03-05T19:24:02.045Z,96680.22
2023-03-05T19:26:04.988Z,96675.94
2023-03-05T19:28:07.545Z,96685.34
2023-03-05T19:30:12.067Z,96676.69
2023-03-05T19:32:18.402Z,96677.72
2023-03-05T19:34:24.207Z,96677.78
2023-03-05T19:36:26.872Z,96675.19
2023-03-05T19:38:29.413Z,96674.38
2023-03-05T19:40:33.197Z,96666.63
2023-03-05T19:42:37.983Z,96667.50
2023-03-05T19:44:40.602Z,96668.38
2023-03-05T19:46:43.592Z,96671.81
2023-03-05T19:48:47.488Z,96666.59
2023-03-05T19:50:50.016Z,96667.97
2023-03-05T19:52:52.541Z,96663.63
2023-03-05T19:54:55.106Z,96664.91
2023-03-05T19:56:58.873Z,96661.75
2023-03-05T19:59:01.401Z,96653.28
2023-03-05T20:01:11.892Z,96653.34
2023-03-05T20:03:14.448Z,96653.28
2023-03-05T20:05:18.350Z,96645.56
2023-03-05T20:07:20.915Z,96649.78
2023-03-05T20:09:23.445Z,96649.78
2023-03-05T20:11:27.212Z,96654.13
2023-03-05T20:13:30.929Z,96654.16
2023-03-05T20:15:33.533Z,96652.44
2023-03-05T20:17:36.056Z,96642.06
2023-03-05T20:19:38.560Z,96638.63
2023-03-05T20:21:42.713Z,96636.00
2023-03-05T20:23:45.229Z,96639.44
2023-03-05T20:25:48.004Z,96637.72
2023-03-05T20:27:50.558Z,96642.06
2023-03-05T20:29:53.072Z,96636.09
2023-03-05T20:31:56.837Z,96643.88
2023-03-05T20:33:59.389Z,96644.72
2023-03-05T20:36:01.953Z,96640.44
2023-03-05T20:38:20.762Z,96637.94
2023-03-05T20:40:23.435Z,96641.50
2023-03-05T20:42:26.008Z,96638.91
2023-03-05T20:44:28.515Z,96629.44
2023-03-05T20:46:33.006Z,96627.69
2023-03-05T20:48:35.603Z,96635.47
2023-03-05T20:50:38.498Z,96638.06
2023-03-05T20:52:41.759Z,96629.53
2023-03-05T20:54:47.631Z,96626.03
2023-03-05T20:56:50.259Z,96626.13
2023-03-05T20:58:52.796Z,96620.97
2023-03-05T21:00:55.653Z,96620.06
2023-03-05T21:02:58.265Z,96621.75
2023-03-05T21:05:00.889Z,96621.81
2023-03-05T21:07:04.070Z,96614.97
2023-03-05T21:09:06.661Z,96611.59
2023-03-05T21:11:11.143Z,96614.16
2023-03-05T21:13:13.730Z,96613.34
2023-03-05T21:15:19.274Z,96608.97
2023-03-05T21:17:21.881Z,96600.34
2023-03-05T21:19:24.397Z,96607.28
2023-03-05T21:21:27.034Z,96607.31
2023-03-05T21:23:29.687Z,96601.25
2023-03-05T21:25:33.383Z,96602.16
2023-03-05T21:27:37.854Z,96594.38
2023-03-05T21:29:40.418Z,96593.50
2023-03-05T21:31:43.004Z,96590.06
2023-03-05T21:33:45.844Z,96589.13
2023-03-05T21:35:49.027Z,96590.00
2023-03-05T21:37:52.603Z,96582.28
2023-03-05T21:39:55.214Z,96575.41
2023-03-05T21:41:57.773Z,96568.53
2023-03-05T21:44:03.988Z,96565.91
2023-03-05T21:46:06.751Z,96562.50
2023-03-05T21:48:09.997Z,96564.13
2023-03-05T21:50:14.057Z,96562.44
2023-03-05T21:52:16.964Z,96552.94
2023-03-05T21:54:19.595Z,96562.41
2023-03-05T21:56:24.367Z,96558.94
2023-03-05T21:58:26.933Z,96556.31
2023-03-05T22:00:30.839Z,96546.00
2023-03-05T22:02:33.462Z,96544.22
2023-03-05T22:04:36.020Z,96550.25
2023-03-05T22:06:38.566Z,96542.53
2023-03-05T22:08:43.501Z,96544.19
2023-03-05T22:10:46.220Z,96538.16
2023-03-05T22:12:56.551Z,96533.81
2023-03-05T22:14:59.095Z,96536.38
2023-03-05T22:17:03.305Z,96525.25
2023-03-05T22:19:07.102Z,96517.47
2023-03-05T22:21:17.975Z,96522.66
2023-03-05T22:23:22.254Z,96521.75
2023-03-05T22:25:24.791Z,96521.81
2023-03-05T22:27:28.056Z,96518.31
2023-03-05T22:29:30.584Z,96522.88
2023-03-05T22:31:33.154Z,96523.03
2023-03-05T22:33:37.102Z,96517.94
2023-03-05T22:35:40.687Z,96516.25
2023-03-05T22:37:43.807Z,96511.97
2023-03-05T22:39:46.355Z,96512.84
2023-03-05T22:41:48.891Z,96505.06
2023-03-05T22:43:51.896Z,96501.69
2023-03-05T22:45:54.462Z,96505.06
2023-03-05T22:47:57.080Z,96508.50
2023-03-05T22:50:00.987Z,96512.72
2023-03-05T22:52:03.529Z,96512.81
2023-03-05T22:54:06.370Z,96507.59
2023-03-05T22:56:10.449Z,96502.66
2023-03-05T22:58:13.019Z,96500.97
2023-03-05T23:00:18.719Z,96504.47
2023-03-05T23:02:21.480Z,96494.97
2023-03-05T23:04:40.083Z,96486.34
2023-03-05T23:06:43.947Z,96484.59
2023-03-05T23:08:46.493Z,96473.38
2023-03-05T23:10:49.031Z,96475.09
2023-03-05T23:12:53.362Z,96481.06
2023-03-05T23:14:56.094Z,96475.03
2023-03-05T23:16:58.667Z,96477.63
2023-03-05T23:19:01.265Z,96469.88
2023-03-05T23:21:03.917Z,96476.81
2023-03-05T23:23:07.875Z,96469.13
2023-03-05T23:25:11.377Z,96469.13
2023-03-05T23:27:16.409Z,96471.72
2023-03-05T23:29:18.940Z,96467.53
2023-03-05T23:31:21.659Z,96463.22
2023-03-05T23:33:25.034Z,96462.44
2023-03-05T23:35:29.238Z,96461.63
2023-03-05T23:37:31.897Z,96464.16
2023-03-05T23:39:35.879Z,96461.50
2023-03-05T23:41:38.414Z,96458.06
2023-03-05T23:43:40.965Z,96456.31
2023-03-05T23:45:43.784Z,96453.69
2023-03-05T23:47:48.207Z,96455.44
2023-03-05T23:49:50.769Z,96449.50
2023-03-05T23:51:53.322Z,96458.97
2023-03-05T23:53:55.870Z,96448.78
2023-03-05T23:55:59.754Z,96454.03
2023-03-05T23:58:02.813Z,96448.06
